KISP/ISP METAR and TAF weather

Enter ICAO airport designator
Station Type Date Time Source
KISP METAR 2021/04/17 02:56 UTC NOAA

KISP 170256Z 30009KT 10SM FEW040 OVC070 07/04 A2967 RMK AO2 RAE0157 SLP048 P0000 60000 T00670039 51011


Station Type Date Time Source
KISP Decoded METAR 2021/04/17 02:56 UTC NOAA

ISLIP LONG ISLAND MAC ART, NY, United States (KISP) 40-48N 073-06W 43M
Apr 16, 2021 - 10:56 PM EDT / 2021.04.17 0256 UTC
Wind: from the WNW (300 degrees) at 10 MPH (9 KT):0
Visibility: 10 mile(s):0
Sky conditions: overcast
Precipitation last hour: A trace
Temperature: 44.1 F (6.7 C)
Dew Point: 39.0 F (3.9 C)
Relative Humidity: 82%
Pressure (altimeter): 29.67 in. Hg (1004 hPa)
Pressure tendency: 0.03 inches (1.1 hPa) higher than three hours ago
ob: KISP 170256Z 30009KT 10SM FEW040 OVC070 07/04 A2967 RMK AO2 RAE0157 SLP048 P0000 60000 T00670039 51011
cycle: 3

Station Type Date Time Source
KISP TAF 2021/04/17 03:36 UTC NOAA

TAF
AMD KISP 170233Z 1703/1724 29007KT P6SM -RA FEW040 OVC060
FM170500 32009KT P6SM BKN040
FM171400 33011G18KT P6SM BKN045
FM171900 32007KT P6SM SCT120
FM172300 VRB04KT P6SM SCT050

Example: see airport list